Los Angeles, Argentina
Current Conditions -  °F | °C
As of 6:00 PM on Tuesday 27 Jan 2015 (Local Time) from SANT Reporting Station
Few Clouds Few Clouds  
Wind Chill: 90°   Ceiling: Unl
Heat Index: 95°   Visibility: 6mi
Dew Point: 70°   Wind: 10mph
Humidity: 52%   Direction: 180°S
Pressure: 29.68"   Gusts: NA
Location:  28.54°S, 65.95°W
Report Text: SANT 272100Z 18009KT 9999 FEW040 FEW045CB32/21 Q1005
Loading
Personal Weather Stations






























Interactive Weather Map New forecast layout! Learn more

10-Day Weather Forecast

Advertisements
Track Severe Weather on mobile